createdAt,value
2018-12-16T00:00:29.056Z,27.80
2018-12-16T00:02:56.471Z,31.77
2018-12-16T00:05:23.876Z,30.60
2018-12-16T00:07:51.998Z,28.87
2018-12-16T00:10:19.510Z,34.97
2018-12-16T00:12:47.110Z,38.97
2018-12-16T00:15:14.888Z,34.45
2018-12-16T00:17:42.739Z,33.92
2018-12-16T00:20:13.931Z,32.30
2018-12-16T00:22:41.440Z,39.60
2018-12-16T00:25:08.870Z,31.12
2018-12-16T00:27:36.503Z,35.45
2018-12-16T00:30:04.012Z,44.67
2018-12-16T00:32:34.175Z,34.22
2018-12-16T00:35:03.427Z,30.80
2018-12-16T00:37:31.453Z,34.40
2018-12-16T00:39:59.295Z,33.72
2018-12-16T00:42:26.932Z,30.05
2018-12-16T00:44:54.980Z,36.65
2018-12-16T00:47:22.547Z,33.10
2018-12-16T00:49:51.033Z,33.50
2018-12-16T00:52:19.418Z,36.13
2018-12-16T00:54:50.574Z,31.35
2018-12-16T00:57:18.048Z,35.85
2018-12-16T00:59:45.499Z,40.42
2018-12-16T01:02:18.671Z,36.72
2018-12-16T01:04:46.150Z,28.73
2018-12-16T01:07:14.210Z,34.20
2018-12-16T01:09:42.519Z,24.87
2018-12-16T01:12:09.984Z,31.90
2018-12-16T01:14:38.022Z,29.95
2018-12-16T01:17:06.122Z,34.65
2018-12-16T01:19:33.535Z,36.65
2018-12-16T01:22:00.990Z,33.13
2018-12-16T01:24:28.429Z,27.00
2018-12-16T01:26:55.876Z,29.12
2018-12-16T01:29:23.276Z,34.17
2018-12-16T01:31:50.696Z,37.92
2018-12-16T01:34:18.098Z,36.60
2018-12-16T01:36:45.528Z,27.73
2018-12-16T01:39:12.936Z,32.33
2018-12-16T01:41:40.350Z,32.90
2018-12-16T01:44:08.092Z,35.83
2018-12-16T01:46:35.543Z,30.58
2018-12-16T01:49:04.912Z,37.85
2018-12-16T01:51:32.313Z,36.92
2018-12-16T01:53:59.742Z,33.22
2018-12-16T01:56:27.253Z,31.27
2018-12-16T01:58:54.727Z,33.55
2018-12-16T02:01:22.276Z,29.90
2018-12-16T02:03:49.702Z,34.80
2018-12-16T02:06:17.800Z,28.67
2018-12-16T02:08:45.445Z,26.75
2018-12-16T02:11:12.934Z,32.85
2018-12-16T02:13:40.560Z,31.00
2018-12-16T02:16:08.103Z,34.85
2018-12-16T02:18:36.207Z,35.85
2018-12-16T02:21:08.222Z,27.67
2018-12-16T02:23:36.934Z,39.75
2018-12-16T02:26:04.896Z,27.55
2018-12-16T02:28:33.034Z,26.87
2018-12-16T02:31:00.556Z,28.62
2018-12-16T02:33:29.492Z,27.65
2018-12-16T02:35:57.048Z,34.80
2018-12-16T02:38:24.728Z,24.00
2018-12-16T02:40:52.138Z,29.23
2018-12-16T02:43:19.629Z,25.15
2018-12-16T02:45:47.890Z,26.40
2018-12-16T02:48:15.577Z,24.77
2018-12-16T02:50:43.225Z,24.10
2018-12-16T02:53:13.031Z,19.77
2018-12-16T02:55:40.671Z,25.75
2018-12-16T02:58:08.969Z,22.50
2018-12-16T03:00:37.177Z,24.02
2018-12-16T03:03:07.054Z,23.52
2018-12-16T03:05:36.082Z,23.02
2018-12-16T03:08:05.200Z,28.15
2018-12-16T03:10:33.901Z,22.67
2018-12-16T03:13:06.660Z,26.05
2018-12-16T03:15:34.322Z,24.90
2018-12-16T03:18:03.043Z,29.75
2018-12-16T03:20:30.923Z,26.90
2018-12-16T03:22:59.283Z,29.25
2018-12-16T03:28:02.016Z,31.77
2018-12-16T03:30:33.350Z,31.58
2018-12-16T03:33:00.863Z,32.47
2018-12-16T03:35:28.787Z,35.10
2018-12-16T03:37:57.123Z,26.05
2018-12-16T03:40:24.549Z,36.38
2018-12-16T03:42:52.130Z,39.50
2018-12-16T03:45:19.599Z,30.45
2018-12-16T03:47:47.283Z,32.38
2018-12-16T03:50:14.897Z,31.30
2018-12-16T03:52:42.361Z,31.75
2018-12-16T03:55:09.968Z,26.50
2018-12-16T03:57:38.803Z,26.83
2018-12-16T04:00:07.252Z,34.70
2018-12-16T04:02:34.800Z,30.83
2018-12-16T04:05:02.386Z,26.00
2018-12-16T04:07:32.583Z,33.55
2018-12-16T04:10:00.580Z,28.70
2018-12-16T04:12:28.118Z,29.63
2018-12-16T04:14:55.551Z,30.95
2018-12-16T04:17:22.979Z,30.27
2018-12-16T04:19:50.485Z,30.50
2018-12-16T04:22:18.133Z,30.75
2018-12-16T04:24:45.595Z,33.17
2018-12-16T04:27:18.894Z,34.30
2018-12-16T04:29:47.167Z,23.20
2018-12-16T04:32:15.333Z,30.73
2018-12-16T04:34:42.912Z,31.08
2018-12-16T04:37:10.587Z,26.87
2018-12-16T04:39:38.103Z,25.48
2018-12-16T04:42:07.389Z,30.45
2018-12-16T04:44:35.173Z,25.40
2018-12-16T04:47:02.710Z,30.98
2018-12-16T04:49:30.183Z,22.37
2018-12-16T04:51:57.942Z,24.25
2018-12-16T04:54:25.392Z,23.55
2018-12-16T04:56:53.394Z,27.92
2018-12-16T04:59:20.835Z,28.27
2018-12-16T05:01:48.922Z,27.75
2018-12-16T05:04:16.449Z,30.27
2018-12-16T05:06:43.841Z,31.58
2018-12-16T05:09:11.290Z,27.65
2018-12-16T05:11:38.708Z,23.25
2018-12-16T05:14:06.120Z,29.63
2018-12-16T05:16:33.534Z,29.15
2018-12-16T05:19:00.959Z,23.70
2018-12-16T05:21:28.360Z,24.52
2018-12-16T05:23:55.786Z,21.60
2018-12-16T05:26:23.293Z,22.65
2018-12-16T05:28:50.697Z,22.52
2018-12-16T05:31:18.263Z,27.75
2018-12-16T05:33:45.654Z,24.67
2018-12-16T05:36:13.515Z,25.35
2018-12-16T05:38:40.945Z,23.12
2018-12-16T05:41:08.408Z,29.95
2018-12-16T05:43:35.895Z,25.20
2018-12-16T05:46:03.320Z,20.98
2018-12-16T05:48:30.736Z,16.00
2018-12-16T05:50:58.153Z,18.90
2018-12-16T05:53:25.558Z,20.12
2018-12-16T05:55:52.998Z,19.48
2018-12-16T05:58:20.441Z,12.98
2018-12-16T06:00:47.877Z,17.98
2018-12-16T06:03:15.301Z,12.05
2018-12-16T06:05:42.776Z,13.00
2018-12-16T06:08:10.144Z,21.67
2018-12-16T06:10:37.599Z,14.05
2018-12-16T06:13:05.017Z,18.27
2018-12-16T06:15:32.430Z,14.80
2018-12-16T06:17:59.840Z,14.45
2018-12-16T06:20:27.284Z,14.07
2018-12-16T06:22:54.699Z,12.43
2018-12-16T06:25:22.121Z,10.85
2018-12-16T06:27:49.541Z,14.13
2018-12-16T06:30:16.960Z,13.80
2018-12-16T06:32:44.383Z,12.05
2018-12-16T06:35:11.801Z,12.80
2018-12-16T06:37:39.319Z,13.85
2018-12-16T06:40:06.871Z,13.52
2018-12-16T06:42:34.300Z,11.63
2018-12-16T06:45:01.696Z,15.05
2018-12-16T06:47:29.352Z,11.40
2018-12-16T06:49:56.873Z,12.20
2018-12-16T06:52:24.310Z,13.32
2018-12-16T06:54:51.720Z,15.77
2018-12-16T06:57:19.128Z,9.88
2018-12-16T06:59:46.574Z,11.95
2018-12-16T07:02:13.981Z,14.65
2018-12-16T07:04:41.405Z,9.88
2018-12-16T07:07:08.823Z,9.65
2018-12-16T07:09:36.248Z,8.65
2018-12-16T07:12:03.696Z,11.85
2018-12-16T07:14:31.122Z,13.00
2018-12-16T07:16:58.600Z,11.35
2018-12-16T07:19:26.020Z,15.68
2018-12-16T07:21:53.436Z,25.35
2018-12-16T07:24:20.874Z,11.35
2018-12-16T07:26:48.293Z,22.00
2018-12-16T07:29:15.767Z,19.95
2018-12-16T07:31:43.210Z,22.13
2018-12-16T07:34:10.627Z,21.23
2018-12-16T07:36:38.035Z,18.77
2018-12-16T07:39:05.478Z,25.80
2018-12-16T07:41:32.952Z,16.87
2018-12-16T07:44:00.863Z,22.17
2018-12-16T07:46:28.795Z,19.45
2018-12-16T07:48:57.304Z,18.77
2018-12-16T07:51:24.705Z,19.77
2018-12-16T07:53:52.133Z,19.60
2018-12-16T07:56:19.596Z,19.33
2018-12-16T07:58:47.008Z,17.83
2018-12-16T08:01:14.430Z,16.08
2018-12-16T08:03:42.258Z,15.40
2018-12-16T08:06:09.862Z,13.95
2018-12-16T08:08:37.430Z,18.83
2018-12-16T08:11:04.871Z,17.35
2018-12-16T08:13:32.322Z,11.20
2018-12-16T08:16:00.224Z,16.98
2018-12-16T08:18:27.653Z,14.93
2018-12-16T08:20:55.043Z,19.33
2018-12-16T08:23:22.447Z,10.80
2018-12-16T08:25:49.862Z,13.93
2018-12-16T08:28:17.304Z,12.82
2018-12-16T08:30:44.717Z,13.62
2018-12-16T08:33:12.635Z,11.88
2018-12-16T08:35:40.106Z,14.07
2018-12-16T08:38:07.531Z,16.23
2018-12-16T08:40:34.946Z,12.05
2018-12-16T08:43:02.360Z,15.85
2018-12-16T08:45:29.783Z,13.57
2018-12-16T08:47:57.184Z,14.43
2018-12-16T08:50:24.753Z,13.13
2018-12-16T08:52:52.162Z,12.95
2018-12-16T08:55:19.598Z,17.12
2018-12-16T08:57:47.032Z,13.20
2018-12-16T09:00:14.479Z,10.93
2018-12-16T09:02:41.929Z,15.73
2018-12-16T09:05:09.332Z,13.52
2018-12-16T09:07:37.396Z,12.57
2018-12-16T09:10:04.161Z,18.55
2018-12-16T09:12:32.272Z,15.88
2018-12-16T09:15:00.856Z,13.52
2018-12-16T09:17:29.412Z,14.52
2018-12-16T09:19:56.938Z,16.73
2018-12-16T09:22:24.555Z,16.85
2018-12-16T09:24:53.071Z,12.02
2018-12-16T09:27:21.134Z,12.82
2018-12-16T09:29:48.703Z,9.95
2018-12-16T09:32:16.277Z,10.57
2018-12-16T09:34:43.711Z,12.23
2018-12-16T09:37:11.507Z,10.75
2018-12-16T09:39:39.315Z,12.00
2018-12-16T09:42:06.740Z,18.65
2018-12-16T09:44:34.284Z,11.32
2018-12-16T09:47:01.834Z,10.18
2018-12-16T09:49:30.049Z,12.32
2018-12-16T09:51:57.691Z,14.52
2018-12-16T09:54:25.349Z,8.75
2018-12-16T09:56:52.748Z,8.50
2018-12-16T09:59:21.224Z,10.02
2018-12-16T10:01:49.104Z,10.13
2018-12-16T10:04:16.659Z,23.00
2018-12-16T10:06:44.112Z,14.00
2018-12-16T10:09:11.523Z,13.95
2018-12-16T10:11:38.971Z,11.63
2018-12-16T10:14:06.391Z,16.83
2018-12-16T10:16:33.804Z,14.80
2018-12-16T10:19:01.433Z,10.13
2018-12-16T11:57:26.329Z,15.70
2018-12-16T12:07:17.977Z,14.73
2018-12-16T12:09:46.942Z,12.43
2018-12-16T12:12:14.799Z,16.95
2018-12-16T12:14:42.589Z,12.68
2018-12-16T12:17:11.231Z,13.90
2018-12-16T12:19:39.050Z,11.70
2018-12-16T12:22:06.846Z,14.40
2018-12-16T12:24:35.260Z,11.97
2018-12-16T12:27:02.821Z,13.48
2018-12-16T12:29:30.316Z,18.13
2018-12-16T12:31:57.829Z,12.70
2018-12-16T12:36:53.583Z,12.60
2018-12-16T12:39:22.437Z,13.00
2018-12-16T12:41:49.886Z,11.80
2018-12-16T12:44:17.316Z,13.70
2018-12-16T12:46:44.793Z,16.58
2018-12-16T12:49:12.205Z,14.98
2018-12-16T12:51:39.621Z,17.62
2018-12-16T12:54:07.217Z,14.80
2018-12-16T12:59:03.207Z,12.67
2018-12-16T13:01:30.708Z,10.45
2018-12-16T13:03:58.176Z,10.83
2018-12-16T13:06:25.670Z,14.02
2018-12-16T13:08:53.122Z,16.50
2018-12-16T13:11:20.559Z,12.65
2018-12-16T13:13:48.106Z,13.43
2018-12-16T13:16:15.574Z,13.60
2018-12-16T13:18:43.015Z,12.23
2018-12-16T13:21:11.377Z,10.80
2018-12-16T13:23:38.834Z,17.02
2018-12-16T13:26:06.350Z,13.95
2018-12-16T13:28:33.759Z,14.63
2018-12-16T13:31:01.199Z,12.30
2018-12-16T13:33:28.651Z,16.15
2018-12-16T13:35:56.059Z,12.02
2018-12-16T13:38:23.464Z,14.32
2018-12-16T13:40:50.887Z,13.68
2018-12-16T13:43:18.655Z,16.67
2018-12-16T13:45:46.049Z,15.50
2018-12-16T13:48:13.516Z,12.63
2018-12-16T13:50:40.902Z,15.17
2018-12-16T13:53:08.488Z,13.80
2018-12-16T13:55:40.811Z,22.30
2018-12-16T13:58:03.564Z,13.25
2018-12-16T14:00:31.017Z,11.50
2018-12-16T14:02:58.655Z,15.45
2018-12-16T14:07:53.105Z,11.25
2018-12-16T14:10:20.564Z,15.00
2018-12-16T14:12:47.979Z,12.05
2018-12-16T14:15:15.389Z,13.00
2018-12-16T14:17:42.803Z,16.80
2018-12-16T14:20:10.255Z,11.03
2018-12-16T14:22:37.699Z,13.32
2018-12-16T14:27:33.267Z,13.68
2018-12-16T14:30:01.236Z,21.00
2018-12-16T14:32:28.779Z,15.55
2018-12-16T20:25:25.998Z,22.60
2018-12-16T20:27:53.413Z,23.35
2018-12-16T20:30:21.161Z,20.75
2018-12-16T20:35:15.571Z,26.45
2018-12-16T20:37:42.983Z,20.30
2018-12-16T20:40:10.419Z,28.17
2018-12-16T20:45:05.998Z,16.40
2018-12-16T20:47:33.423Z,19.70
2018-12-16T20:50:00.855Z,28.95
2018-12-16T21:04:43.712Z,16.90
2018-12-16T21:07:11.124Z,15.38
2018-12-16T21:09:38.619Z,14.30
2018-12-16T21:12:06.027Z,31.93
2018-12-16T21:19:38.749Z,19.60
2018-12-16T21:36:48.859Z,19.30
2018-12-16T21:49:04.239Z,18.60
2018-12-16T22:06:14.069Z,17.23
2018-12-16T22:08:41.524Z,13.17
2018-12-16T22:11:09.304Z,19.40
2018-12-16T22:13:36.720Z,15.00
2018-12-16T22:16:04.368Z,19.50
2018-12-16T22:18:32.048Z,11.98
2018-12-16T22:20:59.463Z,15.63
2018-12-16T22:23:27.284Z,11.55
2018-12-16T22:25:54.704Z,11.10
2018-12-16T22:28:23.768Z,10.90
2018-12-16T22:30:49.620Z,13.30
2018-12-16T22:38:16.769Z,10.30
2018-12-16T22:43:11.149Z,16.90
2018-12-16T22:45:38.539Z,11.75
2018-12-16T22:48:05.947Z,16.85
2018-12-16T22:50:34.181Z,11.87
2018-12-16T22:53:01.573Z,10.97
2018-12-16T22:57:55.960Z,9.95
2018-12-16T23:12:38.264Z,37.10
